sensor_id;sensor_type;location;lat;lon;timestamp;pressure;altitude;pressure_sealevel;temperature;humidity
48517;BME280;34310;51.904;4.256;2023-05-18T00:01:23;102984.22;;;18.30;55.88
48517;BME280;34310;51.904;4.256;2023-05-18T00:03:50;102976.25;;;18.28;55.86
48517;BME280;34310;51.904;4.256;2023-05-18T00:06:20;102976.25;;;18.28;55.67
48517;BME280;34310;51.904;4.256;2023-05-18T00:08:48;102972.72;;;18.27;55.79
48517;BME280;34310;51.904;4.256;2023-05-18T00:11:16;102981.38;;;18.26;55.73
48517;BME280;34310;51.904;4.256;2023-05-18T00:13:44;102980.47;;;18.26;56.04
48517;BME280;34310;51.904;4.256;2023-05-18T00:16:11;102979.56;;;18.25;55.86
48517;BME280;34310;51.904;4.256;2023-05-18T00:18:41;102982.06;;;18.24;56.06
48517;BME280;34310;51.904;4.256;2023-05-18T00:21:11;102979.44;;;18.24;55.86
48517;BME280;34310;51.904;4.256;2023-05-18T00:23:39;102979.34;;;18.22;55.92
48517;BME280;34310;51.904;4.256;2023-05-18T00:26:08;102980.25;;;18.23;56.07
48517;BME280;34310;51.904;4.256;2023-05-18T00:28:35;102987.03;;;18.21;56.06
48517;BME280;34310;51.904;4.256;2023-05-18T00:31:02;102983.50;;;18.20;56.04
48517;BME280;34310;51.904;4.256;2023-05-18T00:33:30;102981.69;;;18.19;55.98
48517;BME280;34310;51.904;4.256;2023-05-18T00:35:57;102983.41;;;18.19;55.99
48517;BME280;34310;51.904;4.256;2023-05-18T00:38:25;102996.47;;;18.19;56.15
48517;BME280;34310;51.904;4.256;2023-05-18T00:40:52;102979.75;;;18.17;55.93
48517;BME280;34310;51.904;4.256;2023-05-18T00:43:20;102982.38;;;18.17;56.23
48517;BME280;34310;51.904;4.256;2023-05-18T00:45:47;102981.47;;;18.16;56.31
48517;BME280;34310;51.904;4.256;2023-05-18T00:48:14;102980.44;;;18.14;56.03
48517;BME280;34310;51.904;4.256;2023-05-18T00:50:42;102986.59;;;18.15;56.19
48517;BME280;34310;51.904;4.256;2023-05-18T00:53:09;102983.19;;;18.16;56.06
48517;BME280;34310;51.904;4.256;2023-05-18T00:55:37;102984.78;;;18.14;56.15
48517;BME280;34310;51.904;4.256;2023-05-18T00:58:04;102976.03;;;18.13;56.31
48517;BME280;34310;51.904;4.256;2023-05-18T01:00:32;102982.03;;;18.12;56.15
48517;BME280;34310;51.904;4.256;2023-05-18T01:03:04;102983.75;;;18.12;56.24
48517;BME280;34310;51.904;4.256;2023-05-18T01:05:31;102984.53;;;18.11;56.29
48517;BME280;34310;51.904;4.256;2023-05-18T01:07:59;102987.16;;;18.11;56.23
48517;BME280;34310;51.904;4.256;2023-05-18T01:10:32;102989.66;;;18.09;56.09
48517;BME280;34310;51.904;4.256;2023-05-18T01:13:08;102990.69;;;18.11;56.24
48517;BME280;34310;51.904;4.256;2023-05-18T01:15:39;102986.13;;;18.09;56.24
48517;BME280;34310;51.904;4.256;2023-05-18T01:18:33;102990.34;;;18.07;56.29
48517;BME280;34310;51.904;4.256;2023-05-18T01:21:09;102991.16;;;18.06;56.24
48517;BME280;34310;51.904;4.256;2023-05-18T01:26:28;102991.94;;;18.05;56.46
48517;BME280;34310;51.904;4.256;2023-05-18T01:28:59;102991.03;;;18.04;56.49
48517;BME280;34310;51.904;4.256;2023-05-18T01:31:29;102992.72;;;18.04;56.53
48517;BME280;34310;51.904;4.256;2023-05-18T01:33:57;102988.31;;;18.03;56.52
48517;BME280;34310;51.904;4.256;2023-05-18T01:36:24;102987.41;;;18.02;56.33
48517;BME280;34310;51.904;4.256;2023-05-18T01:38:52;102983.88;;;18.02;56.42
48517;BME280;34310;51.904;4.256;2023-05-18T01:41:25;102988.19;;;18.01;56.45
48517;BME280;34310;51.904;4.256;2023-05-18T01:47:11;102997.75;;;18.01;56.56
48517;BME280;34310;51.904;4.256;2023-05-18T01:52:18;102991.50;;;17.99;56.63
48517;BME280;34310;51.904;4.256;2023-05-18T01:54:51;102994.00;;;17.97;56.56
48517;BME280;34310;51.904;4.256;2023-05-18T01:57:24;102994.78;;;17.96;56.61
48517;BME280;34310;51.904;4.256;2023-05-18T01:59:54;103000.13;;;17.98;56.50
48517;BME280;34310;51.904;4.256;2023-05-18T02:02:23;102998.31;;;17.97;56.66
48517;BME280;34310;51.904;4.256;2023-05-18T02:04:51;102995.47;;;17.93;56.61
48517;BME280;34310;51.904;4.256;2023-05-18T02:07:18;102992.84;;;17.93;56.74
48517;BME280;34310;51.904;4.256;2023-05-18T02:09:46;102995.31;;;17.92;56.78
48517;BME280;34310;51.904;4.256;2023-05-18T02:12:13;102989.19;;;17.91;56.76
48517;BME280;34310;51.904;4.256;2023-05-18T02:14:40;102985.66;;;17.91;56.80
48517;BME280;34310;51.904;4.256;2023-05-18T02:17:07;102991.69;;;17.90;56.74
48517;BME280;34310;51.904;4.256;2023-05-18T02:19:35;102987.25;;;17.89;56.63
48517;BME280;34310;51.904;4.256;2023-05-18T02:22:06;102985.53;;;17.89;56.90
48517;BME280;34310;51.904;4.256;2023-05-18T02:24:33;102987.13;;;17.87;56.69
48517;BME280;34310;51.904;4.256;2023-05-18T02:27:01;102994.19;;;17.88;56.90
48517;BME280;34310;51.904;4.256;2023-05-18T02:29:28;102987.03;;;17.86;56.77
48517;BME280;34310;51.904;4.256;2023-05-18T02:31:56;102992.25;;;17.86;56.81
48517;BME280;34310;51.904;4.256;2023-05-18T02:34:23;102985.22;;;17.85;56.93
48517;BME280;34310;51.904;4.256;2023-05-18T02:36:50;102988.63;;;17.84;57.07
48517;BME280;34310;51.904;4.256;2023-05-18T02:39:19;102986.91;;;17.84;56.79
48517;BME280;34310;51.904;4.256;2023-05-18T02:41:47;102983.28;;;17.82;57.03
48517;BME280;34310;51.904;4.256;2023-05-18T02:44:14;102984.19;;;17.83;56.98
48517;BME280;34310;51.904;4.256;2023-05-18T02:46:41;102984.06;;;17.81;57.05
48517;BME280;34310;51.904;4.256;2023-05-18T02:49:09;102984.97;;;17.82;56.84
48517;BME280;34310;51.904;4.256;2023-05-18T02:51:36;102979.63;;;17.80;57.09
48517;BME280;34310;51.904;4.256;2023-05-18T02:54:04;102975.31;;;17.81;57.06
48517;BME280;34310;51.904;4.256;2023-05-18T02:56:31;102978.72;;;17.80;56.98
48517;BME280;34310;51.904;4.256;2023-05-18T02:58:59;102971.69;;;17.79;57.06
48517;BME280;34310;51.904;4.256;2023-05-18T03:01:27;102974.19;;;17.77;56.96
48517;BME280;34310;51.904;4.256;2023-05-18T03:03:57;102974.19;;;17.77;56.93
48517;BME280;34310;51.904;4.256;2023-05-18T03:06:25;102970.66;;;17.77;56.99
48517;BME280;34310;51.904;4.256;2023-05-18T03:08:53;102974.97;;;17.76;57.17
48517;BME280;34310;51.904;4.256;2023-05-18T03:11:23;102974.06;;;17.76;57.02
48517;BME280;34310;51.904;4.256;2023-05-18T03:13:51;102968.72;;;17.74;56.86
48517;BME280;34310;51.904;4.256;2023-05-18T03:16:18;102983.50;;;17.74;57.22
48517;BME280;34310;51.904;4.256;2023-05-18T03:18:45;102979.19;;;17.74;57.21
48517;BME280;34310;51.904;4.256;2023-05-18T03:21:13;102979.88;;;17.72;57.01
48517;BME280;34310;51.904;4.256;2023-05-18T03:23:40;102977.25;;;17.72;57.14
48517;BME280;34310;51.904;4.256;2023-05-18T03:26:07;102976.34;;;17.71;57.09
48517;BME280;34310;51.904;4.256;2023-05-18T03:28:38;102980.53;;;17.69;57.30
48517;BME280;34310;51.904;4.256;2023-05-18T03:31:05;102977.03;;;17.69;57.29
48517;BME280;34310;51.904;4.256;2023-05-18T03:33:33;102983.16;;;17.69;57.23
48517;BME280;34310;51.904;4.256;2023-05-18T03:36:03;102977.81;;;17.68;57.31
48517;BME280;34310;51.904;4.256;2023-05-18T03:38:31;102980.28;;;17.66;57.32
48517;BME280;34310;51.904;4.256;2023-05-18T03:40:58;102988.13;;;17.66;57.35
48517;BME280;34310;51.904;4.256;2023-05-18T03:43:25;102981.97;;;17.65;57.40
48517;BME280;34310;51.904;4.256;2023-05-18T03:45:55;102981.06;;;17.65;57.07
48517;BME280;34310;51.904;4.256;2023-05-18T03:48:23;102982.78;;;17.64;57.20
48517;BME280;34310;51.904;4.256;2023-05-18T03:50:51;102979.25;;;17.64;57.29
48517;BME280;34310;51.904;4.256;2023-05-18T03:53:18;102977.41;;;17.63;57.41
48517;BME280;34310;51.904;4.256;2023-05-18T03:55:47;102986.94;;;17.62;57.14
48517;BME280;34310;51.904;4.256;2023-05-18T03:58:18;102984.22;;;17.61;57.34
48517;BME280;34310;51.904;4.256;2023-05-18T04:00:46;102989.44;;;17.61;57.45
48517;BME280;34310;51.904;4.256;2023-05-18T04:03:15;102983.31;;;17.60;57.46
48517;BME280;34310;51.904;4.256;2023-05-18T04:05:43;102983.19;;;17.59;57.43
48517;BME280;34310;51.904;4.256;2023-05-18T04:08:11;102976.25;;;17.59;57.49
48517;BME280;34310;51.904;4.256;2023-05-18T04:10:44;102980.56;;;17.59;57.37
48517;BME280;34310;51.904;4.256;2023-05-18T04:13:12;102983.06;;;17.57;57.32
48517;BME280;34310;51.904;4.256;2023-05-18T04:15:39;102983.88;;;17.56;57.23
48517;BME280;34310;51.904;4.256;2023-05-18T04:18:06;102986.47;;;17.56;57.37
48517;BME280;34310;51.904;4.256;2023-05-18T04:20:34;102991.69;;;17.56;57.42
48517;BME280;34310;51.904;4.256;2023-05-18T04:23:03;102992.50;;;17.55;57.39
48517;BME280;34310;51.904;4.256;2023-05-18T04:25:31;102995.09;;;17.55;57.47
48517;BME280;34310;51.904;4.256;2023-05-18T04:27:58;102992.38;;;17.54;57.39
48517;BME280;34310;51.904;4.256;2023-05-18T04:30:27;102994.19;;;17.55;57.57
48517;BME280;34310;51.904;4.256;2023-05-18T04:32:56;103000.22;;;17.54;57.40
48517;BME280;34310;51.904;4.256;2023-05-18T04:35:26;103005.44;;;17.54;57.44
48517;BME280;34310;51.904;4.256;2023-05-18T04:37:54;102997.59;;;17.54;57.51
48517;BME280;34310;51.904;4.256;2023-05-18T04:40:21;102996.69;;;17.53;57.57
48517;BME280;34310;51.904;4.256;2023-05-18T04:42:49;103003.63;;;17.53;57.41
48517;BME280;34310;51.904;4.256;2023-05-18T04:45:17;103003.63;;;17.53;57.54
48517;BME280;34310;51.904;4.256;2023-05-18T04:47:47;103004.41;;;17.52;57.49
48517;BME280;34310;51.904;4.256;2023-05-18T04:50:20;103008.72;;;17.51;57.55
48517;BME280;34310;51.904;4.256;2023-05-18T04:52:50;103013.03;;;17.51;57.44
48517;BME280;34310;51.904;4.256;2023-05-18T04:55:20;103012.13;;;17.50;57.54
48517;BME280;34310;51.904;4.256;2023-05-18T04:57:55;103018.25;;;17.51;57.57
48517;BME280;34310;51.904;4.256;2023-05-18T05:00:24;103026.00;;;17.49;57.68
48517;BME280;34310;51.904;4.256;2023-05-18T05:02:53;103026.00;;;17.49;57.54
48517;BME280;34310;51.904;4.256;2023-05-18T05:05:21;103022.47;;;17.49;57.60
48517;BME280;34310;51.904;4.256;2023-05-18T05:07:53;103018.03;;;17.48;57.65
48517;BME280;34310;51.904;4.256;2023-05-18T05:10:21;103022.47;;;17.49;57.68
48517;BME280;34310;51.904;4.256;2023-05-18T05:12:49;103020.66;;;17.48;57.59
48517;BME280;34310;51.904;4.256;2023-05-18T05:15:17;103017.00;;;17.46;57.49
48517;BME280;34310;51.904;4.256;2023-05-18T05:17:49;103016.22;;;17.47;57.57
48517;BME280;34310;51.904;4.256;2023-05-18T05:20:17;103020.53;;;17.46;57.61
48517;BME280;34310;51.904;4.256;2023-05-18T05:22:44;103023.94;;;17.45;57.59
48517;BME280;34310;51.904;4.256;2023-05-18T05:25:12;103017.00;;;17.46;57.50
48517;BME280;34310;51.904;4.256;2023-05-18T05:27:39;103017.78;;;17.45;57.66
48517;BME280;34310;51.904;4.256;2023-05-18T05:30:07;103020.41;;;17.45;57.75
48517;BME280;34310;51.904;4.256;2023-05-18T05:32:35;103028.25;;;17.45;57.73
48517;BME280;34310;51.904;4.256;2023-05-18T05:35:03;103023.81;;;17.44;57.67
48517;BME280;34310;51.904;4.256;2023-05-18T05:37:31;103022.13;;;17.44;57.75
48517;BME280;34310;51.904;4.256;2023-05-18T05:39:58;103015.97;;;17.44;57.73
48517;BME280;34310;51.904;4.256;2023-05-18T05:42:26;103018.59;;;17.44;57.68
48517;BME280;34310;51.904;4.256;2023-05-18T05:44:53;103018.59;;;17.44;57.64
48517;BME280;34310;51.904;4.256;2023-05-18T05:47:20;103020.28;;;17.43;57.82
48517;BME280;34310;51.904;4.256;2023-05-18T05:49:48;103017.69;;;17.43;57.82
48517;BME280;34310;51.904;4.256;2023-05-18T05:52:15;103024.59;;;17.43;57.86
48517;BME280;34310;51.904;4.256;2023-05-18T05:54:42;103025.53;;;17.43;57.72
48517;BME280;34310;51.904;4.256;2023-05-18T05:57:10;103024.59;;;17.43;57.74
48517;BME280;34310;51.904;4.256;2023-05-18T05:59:37;103023.69;;;17.42;57.79
48517;BME280;34310;51.904;4.256;2023-05-18T06:02:05;103025.53;;;17.43;57.86
48517;BME280;34310;51.904;4.256;2023-05-18T06:04:32;103032.44;;;17.43;57.90
48517;BME280;34310;51.904;4.256;2023-05-18T06:07:00;103028.00;;;17.42;57.85
48517;BME280;34310;51.904;4.256;2023-05-18T06:09:27;103034.13;;;17.42;57.99
48517;BME280;34310;51.904;4.256;2023-05-18T06:11:55;103035.97;;;17.43;57.96
48517;BME280;34310;51.904;4.256;2023-05-18T06:14:22;103035.06;;;17.43;57.79
48517;BME280;34310;51.904;4.256;2023-05-18T06:16:49;103040.28;;;17.43;57.83
48517;BME280;34310;51.904;4.256;2023-05-18T06:19:17;103035.06;;;17.43;57.92
48517;BME280;34310;51.904;4.256;2023-05-18T06:21:45;103042.88;;;17.43;57.94
48517;BME280;34310;51.904;4.256;2023-05-18T06:24:12;103046.41;;;17.43;57.93
48517;BME280;34310;51.904;4.256;2023-05-18T06:26:39;103047.31;;;17.44;57.96
48517;BME280;34310;51.904;4.256;2023-05-18T06:29:07;103048.22;;;17.44;57.98
48517;BME280;34310;51.904;4.256;2023-05-18T06:31:35;103055.16;;;17.44;58.05
48517;BME280;34310;51.904;4.256;2023-05-18T06:34:02;103050.84;;;17.44;58.26
48517;BME280;34310;51.904;4.256;2023-05-18T06:36:30;103054.34;;;17.45;57.95
48517;BME280;34310;51.904;4.256;2023-05-18T06:38:58;103054.34;;;17.45;58.18
48517;BME280;34310;51.904;4.256;2023-05-18T06:41:25;103056.19;;;17.46;57.94
48517;BME280;34310;51.904;4.256;2023-05-18T06:43:52;103053.56;;;17.46;58.23
48517;BME280;34310;51.904;4.256;2023-05-18T06:46:23;103048.34;;;17.46;58.13
48517;BME280;34310;51.904;4.256;2023-05-18T06:48:53;103045.72;;;17.46;58.22
48517;BME280;34310;51.904;4.256;2023-05-18T06:51:20;103051.88;;;17.46;58.08
48517;BME280;34310;51.904;4.256;2023-05-18T06:53:47;103052.78;;;17.47;58.23
48517;BME280;34310;51.904;4.256;2023-05-18T06:56:16;103048.47;;;17.47;58.08
48517;BME280;34310;51.904;4.256;2023-05-18T06:58:44;103052.78;;;17.47;58.28
48517;BME280;34310;51.904;4.256;2023-05-18T07:01:12;103048.47;;;17.47;58.27
48517;BME280;34310;51.904;4.256;2023-05-18T07:03:39;103046.75;;;17.48;58.09
48517;BME280;34310;51.904;4.256;2023-05-18T07:06:07;103053.81;;;17.49;58.29
48517;BME280;34310;51.904;4.256;2023-05-18T07:08:34;103057.31;;;17.49;58.35
48517;BME280;34310;51.904;4.256;2023-05-18T07:11:05;103056.41;;;17.49;58.18
48517;BME280;34310;51.904;4.256;2023-05-18T07:13:32;103059.94;;;17.49;58.23
48517;BME280;34310;51.904;4.256;2023-05-18T07:15:59;103053.81;;;17.49;58.32
48517;BME280;34310;51.904;4.256;2023-05-18T07:18:27;103059.16;;;17.50;58.37
48517;BME280;34310;51.904;4.256;2023-05-18T07:20:54;103058.25;;;17.50;58.37
48517;BME280;34310;51.904;4.256;2023-05-18T07:23:21;103054.84;;;17.51;58.37
48517;BME280;34310;51.904;4.256;2023-05-18T07:25:49;103060.06;;;17.51;58.29
48517;BME280;34310;51.904;4.256;2023-05-18T07:28:17;103060.97;;;17.51;58.23
48517;BME280;34310;51.904;4.256;2023-05-18T07:30:44;103061.88;;;17.52;58.43
48517;BME280;34310;51.904;4.256;2023-05-18T07:33:11;103068.91;;;17.53;58.35
48517;BME280;34310;51.904;4.256;2023-05-18T07:35:39;103056.66;;;17.52;58.32
48517;BME280;34310;51.904;4.256;2023-05-18T07:38:06;103056.66;;;17.52;58.60
48517;BME280;34310;51.904;4.256;2023-05-18T07:40:34;103065.41;;;17.52;58.34
48517;BME280;34310;51.904;4.256;2023-05-18T07:43:01;103069.72;;;17.52;58.28
48517;BME280;34310;51.904;4.256;2023-05-18T07:45:28;103064.59;;;17.53;58.52
48517;BME280;34310;51.904;4.256;2023-05-18T07:47:56;103070.75;;;17.54;58.47
48517;BME280;34310;51.904;4.256;2023-05-18T07:50:24;103064.59;;;17.53;58.39
48517;BME280;34310;51.904;4.256;2023-05-18T07:52:52;103073.34;;;17.54;58.50
48517;BME280;34310;51.904;4.256;2023-05-18T07:55:19;103072.56;;;17.55;58.45
48517;BME280;34310;51.904;4.256;2023-05-18T07:57:47;103071.78;;;17.56;58.45
48517;BME280;34310;51.904;4.256;2023-05-18T08:00:15;103074.38;;;17.56;58.39
48517;BME280;34310;51.904;4.256;2023-05-18T08:02:43;103075.16;;;17.55;58.52
48517;BME280;34310;51.904;4.256;2023-05-18T08:05:12;103071.78;;;17.56;58.49
48517;BME280;34310;51.904;4.256;2023-05-18T08:07:39;103078.81;;;17.57;58.51
48517;BME280;34310;51.904;4.256;2023-05-18T08:10:07;103073.59;;;17.57;58.57
48517;BME280;34310;51.904;4.256;2023-05-18T08:12:35;103065.75;;;17.57;58.59
48517;BME280;34310;51.904;4.256;2023-05-18T08:15:02;103074.63;;;17.59;58.50
48517;BME280;34310;51.904;4.256;2023-05-18T08:17:30;103079.84;;;17.59;58.47
48517;BME280;34310;51.904;4.256;2023-05-18T08:19:57;103078.00;;;17.58;58.55
48517;BME280;34310;51.904;4.256;2023-05-18T08:22:25;103079.03;;;17.60;58.48
48517;BME280;34310;51.904;4.256;2023-05-18T08:24:53;103072.13;;;17.60;58.69
48517;BME280;34310;51.904;4.256;2023-05-18T08:27:20;103072.13;;;17.60;58.63
48517;BME280;34310;51.904;4.256;2023-05-18T08:29:48;103063.38;;;17.60;58.01
48517;BME280;34310;51.904;4.256;2023-05-18T08:32:15;103064.16;;;17.59;56.57
48517;BME280;34310;51.904;4.256;2023-05-18T08:34:43;103064.84;;;17.56;56.30
48517;BME280;34310;51.904;4.256;2023-05-18T08:37:10;103062.91;;;17.54;55.16
48517;BME280;34310;51.904;4.256;2023-05-18T08:39:38;103063.56;;;17.51;54.88
48517;BME280;34310;51.904;4.256;2023-05-18T08:42:28;103061.63;;;17.49;55.05
48517;BME280;34310;51.904;4.256;2023-05-18T08:45:43;103064.13;;;17.47;54.49
48517;BME280;34310;51.904;4.256;2023-05-18T08:48:15;103069.91;;;17.43;53.93
48517;BME280;34310;51.904;4.256;2023-05-18T08:50:43;103066.28;;;17.41;53.67
48517;BME280;34310;51.904;4.256;2023-05-18T08:53:13;103066.94;;;17.39;52.68
48517;BME280;34310;51.904;4.256;2023-05-18T08:55:44;103067.63;;;17.36;52.26
48517;BME280;34310;51.904;4.256;2023-05-18T08:58:14;103069.97;;;17.33;53.33
48517;BME280;34310;51.904;4.256;2023-05-18T09:00:43;103050.66;;;17.31;52.95
48517;BME280;34310;51.904;4.256;2023-05-18T09:03:11;103054.97;;;17.30;52.51
48517;BME280;34310;51.904;4.256;2023-05-18T09:05:40;103058.38;;;17.29;52.47
48517;BME280;34310;51.904;4.256;2023-05-18T09:08:09;103057.34;;;17.27;52.04
48517;BME280;34310;51.904;4.256;2023-05-18T09:10:38;103055.41;;;17.25;52.09
48517;BME280;34310;51.904;4.256;2023-05-18T09:13:05;103046.53;;;17.23;51.68
48517;BME280;34310;51.904;4.256;2023-05-18T09:15:34;103047.31;;;17.22;51.57
48517;BME280;34310;51.904;4.256;2023-05-18T09:18:01;103038.34;;;17.18;51.78
48517;BME280;34310;51.904;4.256;2023-05-18T09:20:30;103040.16;;;17.19;51.55
48517;BME280;34310;51.904;4.256;2023-05-18T09:22:59;103037.44;;;17.18;51.32
48517;BME280;34310;51.904;4.256;2023-05-18T09:25:26;103040.84;;;17.17;51.38
48517;BME280;34310;51.904;4.256;2023-05-18T09:27:57;103031.97;;;17.15;51.12
48517;BME280;34310;51.904;4.256;2023-05-18T09:30:24;103031.06;;;17.14;51.23
48517;BME280;34310;51.904;4.256;2023-05-18T09:32:52;103024.94;;;17.14;51.51
48517;BME280;34310;51.904;4.256;2023-05-18T09:35:20;103031.19;;;17.16;52.34
48517;BME280;34310;51.904;4.256;2023-05-18T09:37:49;103037.31;;;17.16;52.74
48517;BME280;34310;51.904;4.256;2023-05-18T09:40:18;103033.00;;;17.17;52.75
48517;BME280;34310;51.904;4.256;2023-05-18T09:42:53;103037.31;;;17.16;53.10
48517;BME280;34310;51.904;4.256;2023-05-18T09:45:22;103028.56;;;17.16;53.21
48517;BME280;34310;51.904;4.256;2023-05-18T09:47:52;103039.13;;;17.17;52.95
48517;BME280;34310;51.904;4.256;2023-05-18T09:50:23;103034.03;;;17.19;53.18
48517;BME280;34310;51.904;4.256;2023-05-18T09:52:51;103031.31;;;17.17;53.14
48517;BME280;34310;51.904;4.256;2023-05-18T09:55:19;103034.81;;;17.18;53.37
48517;BME280;34310;51.904;4.256;2023-05-18T09:57:48;103035.72;;;17.18;53.54
48517;BME280;34310;51.904;4.256;2023-05-18T10:00:17;103037.56;;;17.19;53.56
48517;BME280;34310;51.904;4.256;2023-05-18T10:02:47;103035.84;;;17.20;53.69
48517;BME280;34310;51.904;4.256;2023-05-18T10:05:24;103033.25;;;17.20;53.94
48517;BME280;34310;51.904;4.256;2023-05-18T10:08:02;103028.16;;;17.21;54.14
48517;BME280;34310;51.904;4.256;2023-05-18T10:10:29;103031.66;;;17.22;54.24
48517;BME280;34310;51.904;4.256;2023-05-18T10:12:57;103037.78;;;17.22;54.26
48517;BME280;34310;51.904;4.256;2023-05-18T10:15:25;103031.78;;;17.23;54.49
48517;BME280;34310;51.904;4.256;2023-05-18T10:17:56;103032.81;;;17.25;54.49
48517;BME280;34310;51.904;4.256;2023-05-18T10:20:24;103036.34;;;17.26;54.63
48517;BME280;34310;51.904;4.256;2023-05-18T10:22:55;103032.03;;;17.26;54.43
48517;BME280;34310;51.904;4.256;2023-05-18T10:25:28;103031.09;;;17.26;54.00
48517;BME280;34310;51.904;4.256;2023-05-18T10:27:59;103026.00;;;17.27;54.17
48517;BME280;34310;51.904;4.256;2023-05-18T10:30:31;103026.00;;;17.27;54.21
48517;BME280;34310;51.904;4.256;2023-05-18T10:32:59;103016.47;;;17.28;54.55
48517;BME280;34310;51.904;4.256;2023-05-18T10:35:33;103016.47;;;17.28;54.92
48517;BME280;34310;51.904;4.256;2023-05-18T10:38:01;103019.19;;;17.29;54.91
48517;BME280;34310;51.904;4.256;2023-05-18T10:40:32;103012.28;;;17.30;54.89
48517;BME280;34310;51.904;4.256;2023-05-18T10:43:02;103017.63;;;17.31;54.97
48517;BME280;34310;51.904;4.256;2023-05-18T10:45:33;103016.03;;;17.33;55.26
48517;BME280;34310;51.904;4.256;2023-05-18T10:48:04;103013.44;;;17.33;55.40
48517;BME280;34310;51.904;4.256;2023-05-18T10:50:33;103009.09;;;17.34;55.49
48517;BME280;34310;51.904;4.256;2023-05-18T10:53:03;103001.44;;;17.36;55.50
48517;BME280;34310;51.904;4.256;2023-05-18T10:55:32;102998.94;;;17.37;55.44
48517;BME280;34310;51.904;4.256;2023-05-18T10:58:05;103000.75;;;17.38;55.45
48517;BME280;34310;51.904;4.256;2023-05-18T11:00:34;103008.69;;;17.40;55.47
48517;BME280;34310;51.904;4.256;2023-05-18T11:03:03;103002.56;;;17.39;55.46
48517;BME280;34310;51.904;4.256;2023-05-18T11:05:34;102995.75;;;17.41;55.66
48517;BME280;34310;51.904;4.256;2023-05-18T11:08:02;102996.78;;;17.43;55.59
48517;BME280;34310;51.904;4.256;2023-05-18T11:10:42;102995.09;;;17.44;55.71
48517;BME280;34310;51.904;4.256;2023-05-18T11:13:14;103001.34;;;17.46;55.71
48517;BME280;34310;51.904;4.256;2023-05-18T11:24:30;102987.84;;;17.51;55.98
48517;BME280;34310;51.904;4.256;2023-05-18T11:27:22;102989.66;;;17.52;56.02
48517;BME280;34310;51.904;4.256;2023-05-18T11:29:50;102983.75;;;17.55;56.11
48517;BME280;34310;51.904;4.256;2023-05-18T11:32:27;102972.50;;;17.56;56.00
48517;BME280;34310;51.904;4.256;2023-05-18T11:34:59;102972.50;;;17.56;56.07
48517;BME280;34310;51.904;4.256;2023-05-18T11:40:11;102970.25;;;17.60;56.26
48517;BME280;34310;51.904;4.256;2023-05-18T11:42:42;102971.16;;;17.61;56.18
48517;BME280;34310;51.904;4.256;2023-05-18T11:45:11;102966.19;;;17.64;56.26
48517;BME280;34310;51.904;4.256;2023-05-18T11:47:39;102959.38;;;17.66;56.23
48517;BME280;34310;51.904;4.256;2023-05-18T11:50:09;102962.00;;;17.66;56.38
48517;BME280;34310;51.904;4.256;2023-05-18T11:52:53;102958.72;;;17.69;56.49
48517;BME280;34310;51.904;4.256;2023-05-18T11:55:20;102954.41;;;17.69;56.44
48517;BME280;34310;51.904;4.256;2023-05-18T11:57:50;102959.88;;;17.72;56.69
48517;BME280;34310;51.904;4.256;2023-05-18T12:00:19;102954.66;;;17.72;56.58
48517;BME280;34310;51.904;4.256;2023-05-18T12:02:48;102960.09;;;17.75;56.67
48517;BME280;34310;51.904;4.256;2023-05-18T12:05:16;102960.22;;;17.77;56.65
48517;BME280;34310;51.904;4.256;2023-05-18T12:07:51;102953.41;;;17.79;56.82
48517;BME280;34310;51.904;4.256;2023-05-18T12:10:20;102942.16;;;17.80;56.71
48517;BME280;34310;51.904;4.256;2023-05-18T12:12:51;102934.44;;;17.81;56.90
48517;BME280;34310;51.904;4.256;2023-05-18T12:15:23;102945.00;;;17.83;56.94
48517;BME280;34310;51.904;4.256;2023-05-18T12:17:51;102939.88;;;17.84;56.99
48517;BME280;34310;51.904;4.256;2023-05-18T12:20:20;102947.81;;;17.86;56.86
48517;BME280;34310;51.904;4.256;2023-05-18T12:22:50;102951.56;;;17.89;56.87
48517;BME280;34310;51.904;4.256;2023-05-18T12:25:20;102947.25;;;17.90;56.92
48517;BME280;34310;51.904;4.256;2023-05-18T12:27:50;102945.66;;;17.92;56.31
48517;BME280;34310;51.904;4.256;2023-05-18T12:30:23;102939.66;;;17.93;56.25
48517;BME280;34310;51.904;4.256;2023-05-18T12:32:53;102945.81;;;17.93;55.78
48517;BME280;34310;51.904;4.256;2023-05-18T12:35:28;102945.00;;;17.94;56.01
48517;BME280;34310;51.904;4.256;2023-05-18T12:37:57;102936.38;;;17.95;56.46
48517;BME280;34310;51.904;4.256;2023-05-18T12:40:32;102946.03;;;17.97;56.22
48517;BME280;34310;51.904;4.256;2023-05-18T12:43:03;102943.53;;;17.98;56.49
48517;BME280;34310;51.904;4.256;2023-05-18T12:45:32;102935.81;;;18.00;55.92
48517;BME280;34310;51.904;4.256;2023-05-18T12:48:11;102944.56;;;18.00;55.77
48517;BME280;34310;51.904;4.256;2023-05-18T12:50:49;102940.34;;;18.02;55.91
48517;BME280;34310;51.904;4.256;2023-05-18T12:53:17;102946.38;;;18.01;55.79
48517;BME280;34310;51.904;4.256;2023-05-18T12:55:54;102936.94;;;18.03;55.70
48517;BME280;34310;51.904;4.256;2023-05-18T12:58:22;102934.44;;;18.05;55.88
48517;BME280;34310;51.904;4.256;2023-05-18T13:00:49;102930.91;;;18.04;55.83
48517;BME280;34310;51.904;4.256;2023-05-18T13:03:18;102932.84;;;18.07;56.03
48517;BME280;34310;51.904;4.256;2023-05-18T13:06:08;102932.03;;;18.08;56.07
48517;BME280;34310;51.904;4.256;2023-05-18T13:08:36;102922.50;;;18.08;55.66
48517;BME280;34310;51.904;4.256;2023-05-18T13:11:05;102930.44;;;18.10;56.04
48517;BME280;34310;51.904;4.256;2023-05-18T13:14:00;102925.31;;;18.11;55.90
48517;BME280;34310;51.904;4.256;2023-05-18T13:16:29;102921.91;;;18.12;55.82
48517;BME280;34310;51.904;4.256;2023-05-18T13:18:58;102920.31;;;18.14;55.94
48517;BME280;34310;51.904;4.256;2023-05-18T13:21:27;102923.84;;;18.15;56.09